sensor_id;sensor_type;location;lat;lon;timestamp;temperature;humidity
44671;DHT22;48397;53.016;-2.260;2023-02-01T00:03:42;7.00;99.90
44671;DHT22;48397;53.016;-2.260;2023-02-01T00:06:10;7.00;99.90
44671;DHT22;48397;53.016;-2.260;2023-02-01T00:08:38;7.00;99.90
44671;DHT22;48397;53.016;-2.260;2023-02-01T00:11:08;7.00;99.90
44671;DHT22;48397;53.016;-2.260;2023-02-01T00:13:38;7.00;99.90
44671;DHT22;48397;53.016;-2.260;2023-02-01T00:16:13;7.10;99.90
44671;DHT22;48397;53.016;-2.260;2023-02-01T00:18:44;7.10;99.90
44671;DHT22;48397;53.016;-2.260;2023-02-01T00:21:13;7.10;99.90
44671;DHT22;48397;53.016;-2.260;2023-02-01T00:23:41;7.10;99.90
44671;DHT22;48397;53.016;-2.260;2023-02-01T00:26:39;7.20;99.90
44671;DHT22;48397;53.016;-2.260;2023-02-01T00:29:14;7.20;99.90
44671;DHT22;48397;53.016;-2.260;2023-02-01T00:31:42;7.20;99.90
44671;DHT22;48397;53.016;-2.260;2023-02-01T00:34:14;7.20;99.90
44671;DHT22;48397;53.016;-2.260;2023-02-01T00:36:43;7.30;99.90
44671;DHT22;48397;53.016;-2.260;2023-02-01T00:41:39;7.40;99.90
44671;DHT22;48397;53.016;-2.260;2023-02-01T00:44:07;7.60;99.90
44671;DHT22;48397;53.016;-2.260;2023-02-01T00:46:35;7.70;99.90
44671;DHT22;48397;53.016;-2.260;2023-02-01T00:49:03;7.70;99.90
44671;DHT22;48397;53.016;-2.260;2023-02-01T00:51:31;7.70;99.90
44671;DHT22;48397;53.016;-2.260;2023-02-01T00:56:26;7.70;99.90
44671;DHT22;48397;53.016;-2.260;2023-02-01T01:01:26;7.70;99.90
44671;DHT22;48397;53.016;-2.260;2023-02-01T01:03:56;7.60;99.90
44671;DHT22;48397;53.016;-2.260;2023-02-01T01:06:32;7.80;99.90
44671;DHT22;48397;53.016;-2.260;2023-02-01T01:09:03;7.80;99.90
44671;DHT22;48397;53.016;-2.260;2023-02-01T01:11:33;7.70;99.90
44671;DHT22;48397;53.016;-2.260;2023-02-01T01:14:01;7.70;99.90
44671;DHT22;48397;53.016;-2.260;2023-02-01T01:16:30;7.70;99.90
44671;DHT22;48397;53.016;-2.260;2023-02-01T01:18:59;4.90;99.90
44671;DHT22;48397;53.016;-2.260;2023-02-01T01:21:27;7.60;99.90
44671;DHT22;48397;53.016;-2.260;2023-02-01T01:23:55;7.70;99.90
44671;DHT22;48397;53.016;-2.260;2023-02-01T01:26:25;9.30;99.90
44671;DHT22;48397;53.016;-2.260;2023-02-01T01:28:56;7.70;99.90
44671;DHT22;48397;53.016;-2.260;2023-02-01T01:31:24;7.60;99.90
44671;DHT22;48397;53.016;-2.260;2023-02-01T01:33:55;7.80;99.90
44671;DHT22;48397;53.016;-2.260;2023-02-01T01:36:24;7.70;99.90
44671;DHT22;48397;53.016;-2.260;2023-02-01T01:38:52;7.80;99.90
44671;DHT22;48397;53.016;-2.260;2023-02-01T01:41:21;7.70;99.90
44671;DHT22;48397;53.016;-2.260;2023-02-01T01:46:32;7.60;99.90
44671;DHT22;48397;53.016;-2.260;2023-02-01T01:51:38;7.60;99.90
44671;DHT22;48397;53.016;-2.260;2023-02-01T01:54:23;7.50;99.90
44671;DHT22;48397;53.016;-2.260;2023-02-01T01:56:57;7.30;99.90
44671;DHT22;48397;53.016;-2.260;2023-02-01T01:59:26;7.20;99.90
44671;DHT22;48397;53.016;-2.260;2023-02-01T02:01:55;7.20;99.90
44671;DHT22;48397;53.016;-2.260;2023-02-01T02:04:23;7.30;99.90
44671;DHT22;48397;53.016;-2.260;2023-02-01T02:06:59;7.30;99.90
44671;DHT22;48397;53.016;-2.260;2023-02-01T02:09:28;7.30;99.90
44671;DHT22;48397;53.016;-2.260;2023-02-01T02:11:55;7.30;99.90
44671;DHT22;48397;53.016;-2.260;2023-02-01T02:14:24;7.40;99.90
44671;DHT22;48397;53.016;-2.260;2023-02-01T02:36:37;7.20;99.90
44671;DHT22;48397;53.016;-2.260;2023-02-01T02:39:23;7.00;99.90
44671;DHT22;48397;53.016;-2.260;2023-02-01T02:45:07;6.70;99.90
44671;DHT22;48397;53.016;-2.260;2023-02-01T02:50:58;6.70;99.90
44671;DHT22;48397;53.016;-2.260;2023-02-01T02:54:11;6.70;99.90
44671;DHT22;48397;53.016;-2.260;2023-02-01T02:57:02;6.70;99.90
44671;DHT22;48397;53.016;-2.260;2023-02-01T03:02:37;6.80;99.90
44671;DHT22;48397;53.016;-2.260;2023-02-01T03:05:24;6.80;99.90
44671;DHT22;48397;53.016;-2.260;2023-02-01T03:08:12;6.80;99.90
44671;DHT22;48397;53.016;-2.260;2023-02-01T03:16:26;6.80;99.90
44671;DHT22;48397;53.016;-2.260;2023-02-01T03:19:20;6.90;99.90
44671;DHT22;48397;53.016;-2.260;2023-02-01T03:22:05;6.90;99.90
44671;DHT22;48397;53.016;-2.260;2023-02-01T03:27:37;7.00;99.90
44671;DHT22;48397;53.016;-2.260;2023-02-01T03:30:22;6.90;99.90
44671;DHT22;48397;53.016;-2.260;2023-02-01T03:32:57;6.90;99.90
44671;DHT22;48397;53.016;-2.260;2023-02-01T03:41:40;6.90;99.90
44671;DHT22;48397;53.016;-2.260;2023-02-01T03:46:59;6.90;99.90
44671;DHT22;48397;53.016;-2.260;2023-02-01T03:49:35;6.90;99.90
44671;DHT22;48397;53.016;-2.260;2023-02-01T03:52:08;6.80;99.90
44671;DHT22;48397;53.016;-2.260;2023-02-01T03:54:37;6.80;99.90
44671;DHT22;48397;53.016;-2.260;2023-02-01T03:57:07;6.80;99.90
44671;DHT22;48397;53.016;-2.260;2023-02-01T03:59:42;6.80;99.90
44671;DHT22;48397;53.016;-2.260;2023-02-01T04:02:10;6.80;99.90
44671;DHT22;48397;53.016;-2.260;2023-02-01T04:04:38;6.90;99.90
44671;DHT22;48397;53.016;-2.260;2023-02-01T04:07:06;7.00;99.90
44671;DHT22;48397;53.016;-2.260;2023-02-01T04:09:34;7.00;99.90
44671;DHT22;48397;53.016;-2.260;2023-02-01T04:12:02;7.00;99.90
44671;DHT22;48397;53.016;-2.260;2023-02-01T04:16:58;7.00;99.90
44671;DHT22;48397;53.016;-2.260;2023-02-01T04:19:25;6.80;99.90
44671;DHT22;48397;53.016;-2.260;2023-02-01T04:21:53;6.70;99.90
44671;DHT22;48397;53.016;-2.260;2023-02-01T04:24:21;6.50;99.90
44671;DHT22;48397;53.016;-2.260;2023-02-01T04:26:48;6.50;99.90
44671;DHT22;48397;53.016;-2.260;2023-02-01T04:29:16;6.40;99.90
44671;DHT22;48397;53.016;-2.260;2023-02-01T04:31:44;6.30;99.90
44671;DHT22;48397;53.016;-2.260;2023-02-01T04:34:12;6.30;99.90
44671;DHT22;48397;53.016;-2.260;2023-02-01T04:36:39;6.20;99.90
44671;DHT22;48397;53.016;-2.260;2023-02-01T04:39:09;6.20;99.90
44671;DHT22;48397;53.016;-2.260;2023-02-01T04:41:37;6.10;99.90
44671;DHT22;48397;53.016;-2.260;2023-02-01T04:44:04;6.00;99.90
44671;DHT22;48397;53.016;-2.260;2023-02-01T04:46:32;6.00;99.90
44671;DHT22;48397;53.016;-2.260;2023-02-01T04:49:00;6.00;99.90
44671;DHT22;48397;53.016;-2.260;2023-02-01T04:51:27;6.00;99.90
44671;DHT22;48397;53.016;-2.260;2023-02-01T04:53:55;6.10;99.90
44671;DHT22;48397;53.016;-2.260;2023-02-01T04:56:23;6.00;99.90
44671;DHT22;48397;53.016;-2.260;2023-02-01T04:58:51;6.10;99.90
44671;DHT22;48397;53.016;-2.260;2023-02-01T05:01:18;6.20;99.90
44671;DHT22;48397;53.016;-2.260;2023-02-01T05:03:46;6.10;99.90
44671;DHT22;48397;53.016;-2.260;2023-02-01T05:06:14;6.20;99.90
44671;DHT22;48397;53.016;-2.260;2023-02-01T05:08:41;6.10;99.90
44671;DHT22;48397;53.016;-2.260;2023-02-01T05:11:09;6.20;99.90
44671;DHT22;48397;53.016;-2.260;2023-02-01T05:13:57;6.10;99.90
44671;DHT22;48397;53.016;-2.260;2023-02-01T05:16:27;4.30;99.90
44671;DHT22;48397;53.016;-2.260;2023-02-01T05:18:54;6.10;99.90
44671;DHT22;48397;53.016;-2.260;2023-02-01T05:21:22;6.00;99.90
44671;DHT22;48397;53.016;-2.260;2023-02-01T05:23:50;6.00;99.90
44671;DHT22;48397;53.016;-2.260;2023-02-01T05:26:37;5.90;99.90
44671;DHT22;48397;53.016;-2.260;2023-02-01T05:29:05;5.90;99.90
44671;DHT22;48397;53.016;-2.260;2023-02-01T05:31:33;5.90;99.90
44671;DHT22;48397;53.016;-2.260;2023-02-01T05:36:29;4.70;99.90
44671;DHT22;48397;53.016;-2.260;2023-02-01T05:38:57;7.00;99.90
44671;DHT22;48397;53.016;-2.260;2023-02-01T05:41:25;6.00;99.90
44671;DHT22;48397;53.016;-2.260;2023-02-01T05:43:52;6.10;99.90
44671;DHT22;48397;53.016;-2.260;2023-02-01T05:46:20;6.10;99.90
44671;DHT22;48397;53.016;-2.260;2023-02-01T05:48:47;6.10;99.90
44671;DHT22;48397;53.016;-2.260;2023-02-01T05:51:15;6.30;99.90
44671;DHT22;48397;53.016;-2.260;2023-02-01T05:53:43;6.30;99.90
44671;DHT22;48397;53.016;-2.260;2023-02-01T05:56:10;6.30;99.90
44671;DHT22;48397;53.016;-2.260;2023-02-01T05:58:38;6.30;99.90
44671;DHT22;48397;53.016;-2.260;2023-02-01T06:01:06;6.20;99.90
44671;DHT22;48397;53.016;-2.260;2023-02-01T06:03:33;6.20;99.90
44671;DHT22;48397;53.016;-2.260;2023-02-01T06:06:01;6.20;99.90
44671;DHT22;48397;53.016;-2.260;2023-02-01T06:08:29;6.20;99.90
44671;DHT22;48397;53.016;-2.260;2023-02-01T06:11:01;6.10;99.90
44671;DHT22;48397;53.016;-2.260;2023-02-01T06:13:29;6.10;99.90
44671;DHT22;48397;53.016;-2.260;2023-02-01T06:16:02;6.10;99.90
44671;DHT22;48397;53.016;-2.260;2023-02-01T06:18:30;6.00;99.90
44671;DHT22;48397;53.016;-2.260;2023-02-01T06:20:58;6.00;99.90
44671;DHT22;48397;53.016;-2.260;2023-02-01T06:23:29;9.30;99.90
44671;DHT22;48397;53.016;-2.260;2023-02-01T06:26:02;6.00;99.90
44671;DHT22;48397;53.016;-2.260;2023-02-01T06:28:32;6.00;99.90
44671;DHT22;48397;53.016;-2.260;2023-02-01T06:31:05;6.00;99.90
44671;DHT22;48397;53.016;-2.260;2023-02-01T06:33:35;6.00;99.90
44671;DHT22;48397;53.016;-2.260;2023-02-01T06:36:05;6.10;99.90
44671;DHT22;48397;53.016;-2.260;2023-02-01T06:38:35;6.20;99.90
44671;DHT22;48397;53.016;-2.260;2023-02-01T06:41:03;6.30;99.90
44671;DHT22;48397;53.016;-2.260;2023-02-01T06:43:31;6.40;99.90
44671;DHT22;48397;53.016;-2.260;2023-02-01T06:46:06;6.40;99.90
44671;DHT22;48397;53.016;-2.260;2023-02-01T06:48:34;6.40;99.90
44671;DHT22;48397;53.016;-2.260;2023-02-01T06:51:02;6.50;99.90
44671;DHT22;48397;53.016;-2.260;2023-02-01T06:53:30;6.60;99.90
44671;DHT22;48397;53.016;-2.260;2023-02-01T06:56:00;6.60;99.90
44671;DHT22;48397;53.016;-2.260;2023-02-01T06:58:33;6.80;99.90
44671;DHT22;48397;53.016;-2.260;2023-02-01T07:01:05;6.80;99.90
44671;DHT22;48397;53.016;-2.260;2023-02-01T07:03:34;6.90;99.90
44671;DHT22;48397;53.016;-2.260;2023-02-01T07:06:02;6.90;99.90
44671;DHT22;48397;53.016;-2.260;2023-02-01T07:08:32;7.00;99.90
44671;DHT22;48397;53.016;-2.260;2023-02-01T07:11:11;7.00;99.90
44671;DHT22;48397;53.016;-2.260;2023-02-01T07:13:39;6.90;99.90
44671;DHT22;48397;53.016;-2.260;2023-02-01T07:16:11;7.10;99.90
44671;DHT22;48397;53.016;-2.260;2023-02-01T07:18:39;7.10;99.90
44671;DHT22;48397;53.016;-2.260;2023-02-01T07:21:07;7.10;99.90
44671;DHT22;48397;53.016;-2.260;2023-02-01T07:23:35;7.20;99.90
44671;DHT22;48397;53.016;-2.260;2023-02-01T07:26:05;7.10;99.90
44671;DHT22;48397;53.016;-2.260;2023-02-01T07:28:34;7.20;99.90
44671;DHT22;48397;53.016;-2.260;2023-02-01T07:31:11;7.20;99.90
44671;DHT22;48397;53.016;-2.260;2023-02-01T07:33:39;7.20;99.90
44671;DHT22;48397;53.016;-2.260;2023-02-01T07:36:14;7.30;99.90
44671;DHT22;48397;53.016;-2.260;2023-02-01T07:38:43;7.30;99.90
44671;DHT22;48397;53.016;-2.260;2023-02-01T07:41:10;7.30;99.90
44671;DHT22;48397;53.016;-2.260;2023-02-01T07:43:38;7.40;99.90
44671;DHT22;48397;53.016;-2.260;2023-02-01T07:46:06;7.30;99.90
44671;DHT22;48397;53.016;-2.260;2023-02-01T07:48:34;7.40;99.90
44671;DHT22;48397;53.016;-2.260;2023-02-01T07:51:05;7.40;99.90
44671;DHT22;48397;53.016;-2.260;2023-02-01T07:53:34;7.50;99.90
44671;DHT22;48397;53.016;-2.260;2023-02-01T07:56:02;7.50;99.90
44671;DHT22;48397;53.016;-2.260;2023-02-01T08:00:58;7.60;99.90
44671;DHT22;48397;53.016;-2.260;2023-02-01T08:03:49;7.50;99.90
44671;DHT22;48397;53.016;-2.260;2023-02-01T08:06:17;7.50;99.90
44671;DHT22;48397;53.016;-2.260;2023-02-01T08:08:48;7.50;99.90
44671;DHT22;48397;53.016;-2.260;2023-02-01T08:13:43;7.50;99.90
44671;DHT22;48397;53.016;-2.260;2023-02-01T08:16:13;7.40;99.90
44671;DHT22;48397;53.016;-2.260;2023-02-01T08:18:41;7.40;99.90
44671;DHT22;48397;53.016;-2.260;2023-02-01T08:21:10;7.40;99.90
44671;DHT22;48397;53.016;-2.260;2023-02-01T08:23:39;7.40;99.90
44671;DHT22;48397;53.016;-2.260;2023-02-01T08:26:13;7.40;99.90
44671;DHT22;48397;53.016;-2.260;2023-02-01T08:28:45;7.40;99.90
44671;DHT22;48397;53.016;-2.260;2023-02-01T08:31:15;7.40;99.90
44671;DHT22;48397;53.016;-2.260;2023-02-01T08:33:50;7.40;99.90
44671;DHT22;48397;53.016;-2.260;2023-02-01T08:36:19;7.60;99.90
44671;DHT22;48397;53.016;-2.260;2023-02-01T08:38:47;7.50;99.90
44671;DHT22;48397;53.016;-2.260;2023-02-01T08:41:18;7.50;99.90
44671;DHT22;48397;53.016;-2.260;2023-02-01T08:43:46;7.60;99.90
44671;DHT22;48397;53.016;-2.260;2023-02-01T08:46:15;7.60;99.90
44671;DHT22;48397;53.016;-2.260;2023-02-01T08:48:45;7.60;99.90
44671;DHT22;48397;53.016;-2.260;2023-02-01T08:51:15;7.70;99.90
44671;DHT22;48397;53.016;-2.260;2023-02-01T08:53:44;7.70;99.90
44671;DHT22;48397;53.016;-2.260;2023-02-01T08:56:13;7.70;99.90
44671;DHT22;48397;53.016;-2.260;2023-02-01T08:58:41;7.80;99.90
44671;DHT22;48397;53.016;-2.260;2023-02-01T09:01:11;7.80;99.90
44671;DHT22;48397;53.016;-2.260;2023-02-01T09:03:40;7.80;99.90
44671;DHT22;48397;53.016;-2.260;2023-02-01T09:06:09;7.80;99.90
44671;DHT22;48397;53.016;-2.260;2023-02-01T09:08:38;7.90;99.90
44671;DHT22;48397;53.016;-2.260;2023-02-01T09:11:10;7.90;99.90
44671;DHT22;48397;53.016;-2.260;2023-02-01T09:13:38;7.90;99.90
44671;DHT22;48397;53.016;-2.260;2023-02-01T09:18:34;8.00;99.90
44671;DHT22;48397;53.016;-2.260;2023-02-01T09:21:06;8.10;99.90
44671;DHT22;48397;53.016;-2.260;2023-02-01T09:23:35;8.10;99.90
44671;DHT22;48397;53.016;-2.260;2023-02-01T09:26:04;8.10;99.90
44671;DHT22;48397;53.016;-2.260;2023-02-01T09:28:32;8.20;99.90
44671;DHT22;48397;53.016;-2.260;2023-02-01T09:31:00;8.20;99.90
44671;DHT22;48397;53.016;-2.260;2023-02-01T09:33:28;8.30;99.90
44671;DHT22;48397;53.016;-2.260;2023-02-01T09:36:00;8.30;99.90
44671;DHT22;48397;53.016;-2.260;2023-02-01T09:38:29;11.20;99.90
44671;DHT22;48397;53.016;-2.260;2023-02-01T09:40:58;8.30;99.90
44671;DHT22;48397;53.016;-2.260;2023-02-01T09:43:43;8.30;99.90
44671;DHT22;48397;53.016;-2.260;2023-02-01T09:46:30;8.30;99.90
44671;DHT22;48397;53.016;-2.260;2023-02-01T09:49:15;8.40;99.90
44671;DHT22;48397;53.016;-2.260;2023-02-01T09:51:46;8.30;99.90
44671;DHT22;48397;53.016;-2.260;2023-02-01T09:54:20;8.40;99.90
44671;DHT22;48397;53.016;-2.260;2023-02-01T09:56:51;8.50;99.90
44671;DHT22;48397;53.016;-2.260;2023-02-01T09:59:40;8.50;99.90
44671;DHT22;48397;53.016;-2.260;2023-02-01T10:02:23;8.50;99.90
44671;DHT22;48397;53.016;-2.260;2023-02-01T10:04:55;8.50;99.90
44671;DHT22;48397;53.016;-2.260;2023-02-01T10:10:30;8.60;99.90
44671;DHT22;48397;53.016;-2.260;2023-02-01T10:29:54;9.00;99.90
44671;DHT22;48397;53.016;-2.260;2023-02-01T10:32:28;9.10;99.90
44671;DHT22;48397;53.016;-2.260;2023-02-01T10:35:00;9.30;99.90
44671;DHT22;48397;53.016;-2.260;2023-02-01T10:37:30;9.30;99.90
44671;DHT22;48397;53.016;-2.260;2023-02-01T10:40:09;9.40;99.90
44671;DHT22;48397;53.016;-2.260;2023-02-01T10:42:39;9.40;99.90
44671;DHT22;48397;53.016;-2.260;2023-02-01T10:45:14;9.40;99.90
44671;DHT22;48397;53.016;-2.260;2023-02-01T10:47:44;9.40;99.90
44671;DHT22;48397;53.016;-2.260;2023-02-01T10:50:29;9.30;99.90
44671;DHT22;48397;53.016;-2.260;2023-02-01T10:53:24;9.30;99.90
44671;DHT22;48397;53.016;-2.260;2023-02-01T10:55:54;9.30;99.90
44671;DHT22;48397;53.016;-2.260;2023-02-01T10:58:32;9.30;99.90
44671;DHT22;48397;53.016;-2.260;2023-02-01T11:01:06;9.50;99.90
44671;DHT22;48397;53.016;-2.260;2023-02-01T11:04:03;9.50;99.90
44671;DHT22;48397;53.016;-2.260;2023-02-01T11:06:41;9.50;99.90
44671;DHT22;48397;53.016;-2.260;2023-02-01T11:14:28;9.80;99.90
44671;DHT22;48397;53.016;-2.260;2023-02-01T11:17:34;9.80;99.90
44671;DHT22;48397;53.016;-2.260;2023-02-01T11:20:09;9.90;99.90
44671;DHT22;48397;53.016;-2.260;2023-02-01T11:22:48;10.00;99.90
44671;DHT22;48397;53.016;-2.260;2023-02-01T11:25:20;10.00;99.90
44671;DHT22;48397;53.016;-2.260;2023-02-01T11:27:54;10.00;99.90
44671;DHT22;48397;53.016;-2.260;2023-02-01T11:30:33;8.80;99.90
44671;DHT22;48397;53.016;-2.260;2023-02-01T11:33:03;9.80;99.90
44671;DHT22;48397;53.016;-2.260;2023-02-01T11:35:37;9.60;99.90
44671;DHT22;48397;53.016;-2.260;2023-02-01T11:38:33;9.50;99.90
44671;DHT22;48397;53.016;-2.260;2023-02-01T11:43:58;9.60;99.90
44671;DHT22;48397;53.016;-2.260;2023-02-01T11:46:34;9.60;99.90
44671;DHT22;48397;53.016;-2.260;2023-02-01T11:49:25;9.60;99.90
44671;DHT22;48397;53.016;-2.260;2023-02-01T11:52:07;9.70;99.90
44671;DHT22;48397;53.016;-2.260;2023-02-01T12:02:33;9.90;99.90
44671;DHT22;48397;53.016;-2.260;2023-02-01T12:08:24;10.00;99.90
44671;DHT22;48397;53.016;-2.260;2023-02-01T12:25:31;10.70;99.90
44671;DHT22;48397;53.016;-2.260;2023-02-01T12:28:39;10.70;99.90
44671;DHT22;48397;53.016;-2.260;2023-02-01T12:36:16;11.10;99.90
44671;DHT22;48397;53.016;-2.260;2023-02-01T12:38:59;11.00;99.90
44671;DHT22;48397;53.016;-2.260;2023-02-01T12:42:09;11.00;99.90
44671;DHT22;48397;53.016;-2.260;2023-02-01T12:44:53;10.90;99.90
44671;DHT22;48397;53.016;-2.260;2023-02-01T12:47:35;10.90;99.90
44671;DHT22;48397;53.016;-2.260;2023-02-01T12:50:52;10.90;99.90
44671;DHT22;48397;53.016;-2.260;2023-02-01T12:53:32;11.00;99.90
44671;DHT22;48397;53.016;-2.260;2023-02-01T12:56:07;11.00;99.90
44671;DHT22;48397;53.016;-2.260;2023-02-01T12:58:43;10.90;99.90
44671;DHT22;48397;53.016;-2.260;2023-02-01T13:01:30;10.90;99.90
44671;DHT22;48397;53.016;-2.260;2023-02-01T13:04:20;11.00;99.90
44671;DHT22;48397;53.016;-2.260;2023-02-01T13:07:11;10.80;99.90
44671;DHT22;48397;53.016;-2.260;2023-02-01T13:09:57;10.70;99.90
44671;DHT22;48397;53.016;-2.260;2023-02-01T13:12:56;10.60;99.90
44671;DHT22;48397;53.016;-2.260;2023-02-01T13:15:49;10.60;99.90
44671;DHT22;48397;53.016;-2.260;2023-02-01T13:18:20;10.60;99.90
44671;DHT22;48397;53.016;-2.260;2023-02-01T13:21:03;10.60;99.90
44671;DHT22;48397;53.016;-2.260;2023-02-01T13:23:35;10.50;99.90
44671;DHT22;48397;53.016;-2.260;2023-02-01T13:26:03;10.70;99.90
44671;DHT22;48397;53.016;-2.260;2023-02-01T13:28:52;10.80;99.90
44671;DHT22;48397;53.016;-2.260;2023-02-01T13:42:51;10.90;99.90
44671;DHT22;48397;53.016;-2.260;2023-02-01T13:45:22;10.80;99.90
44671;DHT22;48397;53.016;-2.260;2023-02-01T13:47:57;10.80;99.90
44671;DHT22;48397;53.016;-2.260;2023-02-01T13:50:35;10.90;99.90
44671;DHT22;48397;53.016;-2.260;2023-02-01T13:53:16;10.90;99.90
44671;DHT22;48397;53.016;-2.260;2023-02-01T13:55:56;10.90;99.90
44671;DHT22;48397;53.016;-2.260;2023-02-01T13:58:40;11.00;99.90
44671;DHT22;48397;53.016;-2.260;2023-02-01T14:11:49;10.90;99.90
44671;DHT22;48397;53.016;-2.260;2023-02-01T14:19:29;10.90;99.90
44671;DHT22;48397;53.016;-2.260;2023-02-01T14:22:00;10.80;99.90
44671;DHT22;48397;53.016;-2.260;2023-02-01T14:24:31;10.90;99.90
44671;DHT22;48397;53.016;-2.260;2023-02-01T14:29:37;10.80;99.90
44671;DHT22;48397;53.016;-2.260;2023-02-01T14:39:57;10.90;99.90
44671;DHT22;48397;53.016;-2.260;2023-02-01T14:42:44;10.70;99.90
44671;DHT22;48397;53.016;-2.260;2023-02-01T14:50:27;10.50;99.90
44671;DHT22;48397;53.016;-2.260;2023-02-01T14:53:16;10.50;99.90
44671;DHT22;48397;53.016;-2.260;2023-02-01T14:55:51;10.40;99.90
44671;DHT22;48397;53.016;-2.260;2023-02-01T14:59:14;10.50;99.90
44671;DHT22;48397;53.016;-2.260;2023-02-01T15:01:38;10.60;99.90
44671;DHT22;48397;53.016;-2.260;2023-02-01T15:12:02;10.70;99.90
44671;DHT22;48397;53.016;-2.260;2023-02-01T15:14:34;10.60;99.90
44671;DHT22;48397;53.016;-2.260;2023-02-01T15:17:15;10.50;99.90
44671;DHT22;48397;53.016;-2.260;2023-02-01T15:19:58;10.40;99.90
44671;DHT22;48397;53.016;-2.260;2023-02-01T15:22:29;10.50;99.90
44671;DHT22;48397;53.016;-2.260;2023-02-01T15:25:00;10.50;99.90
44671;DHT22;48397;53.016;-2.260;2023-02-01T15:27:29;10.40;99.90
44671;DHT22;48397;53.016;-2.260;2023-02-01T15:30:30;10.40;99.90
44671;DHT22;48397;53.016;-2.260;2023-02-01T15:35:44;10.50;99.90
44671;DHT22;48397;53.016;-2.260;2023-02-01T15:46:12;10.20;99.90
44671;DHT22;48397;53.016;-2.260;2023-02-01T15:48:44;10.20;99.90
44671;DHT22;48397;53.016;-2.260;2023-02-01T15:51:15;10.30;99.90
44671;DHT22;48397;53.016;-2.260;2023-02-01T15:53:47;10.30;99.90
44671;DHT22;48397;53.016;-2.260;2023-02-01T15:56:16;10.20;99.90
44671;DHT22;48397;53.016;-2.260;2023-02-01T15:58:52;10.30;99.90
44671;DHT22;48397;53.016;-2.260;2023-02-01T16:01:20;10.30;99.90
44671;DHT22;48397;53.016;-2.260;2023-02-01T16:03:48;10.20;99.90
44671;DHT22;48397;53.016;-2.260;2023-02-01T16:09:00;10.30;99.90
44671;DHT22;48397;53.016;-2.260;2023-02-01T16:11:29;10.10;99.90
44671;DHT22;48397;53.016;-2.260;2023-02-01T16:14:00;10.20;99.90
44671;DHT22;48397;53.016;-2.260;2023-02-01T16:16:30;10.10;99.90
44671;DHT22;48397;53.016;-2.260;2023-02-01T16:18:59;10.10;99.90
44671;DHT22;48397;53.016;-2.260;2023-02-01T16:23:55;10.20;99.90
44671;DHT22;48397;53.016;-2.260;2023-02-01T16:26:22;10.10;99.90
44671;DHT22;48397;53.016;-2.260;2023-02-01T16:28:50;10.10;99.90
44671;DHT22;48397;53.016;-2.260;2023-02-01T16:31:21;10.00;99.90
44671;DHT22;48397;53.016;-2.260;2023-02-01T16:33:50;10.00;99.90
44671;DHT22;48397;53.016;-2.260;2023-02-01T16:36:19;10.00;99.90
44671;DHT22;48397;53.016;-2.260;2023-02-01T16:41:19;10.00;99.90
44671;DHT22;48397;53.016;-2.260;2023-02-01T16:43:50;10.00;99.90
44671;DHT22;48397;53.016;-2.260;2023-02-01T16:46:20;9.90;99.90
44671;DHT22;48397;53.016;-2.260;2023-02-01T16:49:16;9.90;99.90
44671;DHT22;48397;53.016;-2.260;2023-02-01T16:51:45;9.90;99.90
44671;DHT22;48397;53.016;-2.260;2023-02-01T16:54:12;9.80;99.90
44671;DHT22;48397;53.016;-2.260;2023-02-01T16:56:41;9.90;99.90
44671;DHT22;48397;53.016;-2.260;2023-02-01T16:59:09;10.00;99.90
44671;DHT22;48397;53.016;-2.260;2023-02-01T17:01:37;10.00;99.90
44671;DHT22;48397;53.016;-2.260;2023-02-01T17:04:06;9.90;99.90
44671;DHT22;48397;53.016;-2.260;2023-02-01T17:06:35;9.90;99.90
44671;DHT22;48397;53.016;-2.260;2023-02-01T17:09:05;9.90;99.90
44671;DHT22;48397;53.016;-2.260;2023-02-01T17:11:33;9.80;99.90
44671;DHT22;48397;53.016;-2.260;2023-02-01T17:14:19;9.90;99.90
44671;DHT22;48397;53.016;-2.260;2023-02-01T17:16:48;9.80;99.90
44671;DHT22;48397;53.016;-2.260;2023-02-01T17:19:19;9.80;99.90
44671;DHT22;48397;53.016;-2.260;2023-02-01T17:21:56;9.80;99.90
44671;DHT22;48397;53.016;-2.260;2023-02-01T17:24:29;9.90;99.90
44671;DHT22;48397;53.016;-2.260;2023-02-01T17:27:14;9.80;99.90
44671;DHT22;48397;53.016;-2.260;2023-02-01T17:29:42;9.80;99.90
44671;DHT22;48397;53.016;-2.260;2023-02-01T17:32:13;9.80;99.90
44671;DHT22;48397;53.016;-2.260;2023-02-01T17:34:42;9.70;99.90
44671;DHT22;48397;53.016;-2.260;2023-02-01T17:37:31;9.60;99.90
44671;DHT22;48397;53.016;-2.260;2023-02-01T17:40:00;9.60;99.90
44671;DHT22;48397;53.016;-2.260;2023-02-01T17:42:29;9.60;99.90
44671;DHT22;48397;53.016;-2.260;2023-02-01T17:47:46;9.70;99.90
44671;DHT22;48397;53.016;-2.260;2023-02-01T17:50:16;9.70;99.90
44671;DHT22;48397;53.016;-2.260;2023-02-01T17:52:44;9.70;99.90
44671;DHT22;48397;53.016;-2.260;2023-02-01T17:55:18;9.70;99.90
44671;DHT22;48397;53.016;-2.260;2023-02-01T17:57:46;9.60;99.90
44671;DHT22;48397;53.016;-2.260;2023-02-01T18:00:16;9.60;99.90
44671;DHT22;48397;53.016;-2.260;2023-02-01T18:05:13;9.60;99.90
44671;DHT22;48397;53.016;-2.260;2023-02-01T18:07:42;9.30;99.90
44671;DHT22;48397;53.016;-2.260;2023-02-01T18:10:10;9.50;99.90
44671;DHT22;48397;53.016;-2.260;2023-02-01T18:12:38;9.40;99.90
44671;DHT22;48397;53.016;-2.260;2023-02-01T18:15:19;9.40;99.90
44671;DHT22;48397;53.016;-2.260;2023-02-01T18:17:47;9.30;99.90
44671;DHT22;48397;53.016;-2.260;2023-02-01T18:20:25;9.30;99.90
44671;DHT22;48397;53.016;-2.260;2023-02-01T18:22:53;11.60;99.90
44671;DHT22;48397;53.016;-2.260;2023-02-01T18:25:26;9.30;99.90
44671;DHT22;48397;53.016;-2.260;2023-02-01T18:27:55;9.30;99.90
44671;DHT22;48397;53.016;-2.260;2023-02-01T18:30:29;9.30;99.90
44671;DHT22;48397;53.016;-2.260;2023-02-01T18:32:57;9.30;99.90
44671;DHT22;48397;53.016;-2.260;2023-02-01T18:35:28;9.20;99.90
44671;DHT22;48397;53.016;-2.260;2023-02-01T18:37:56;9.20;99.90
44671;DHT22;48397;53.016;-2.260;2023-02-01T18:40:32;9.20;99.90
44671;DHT22;48397;53.016;-2.260;2023-02-01T18:43:02;9.20;99.90
44671;DHT22;48397;53.016;-2.260;2023-02-01T18:45:35;9.10;99.90
44671;DHT22;48397;53.016;-2.260;2023-02-01T18:48:05;9.10;99.90
44671;DHT22;48397;53.016;-2.260;2023-02-01T18:50:36;9.00;99.90
44671;DHT22;48397;53.016;-2.260;2023-02-01T18:53:12;9.00;99.90
44671;DHT22;48397;53.016;-2.260;2023-02-01T18:55:41;8.90;99.90
44671;DHT22;48397;53.016;-2.260;2023-02-01T18:58:11;8.90;99.90
44671;DHT22;48397;53.016;-2.260;2023-02-01T19:00:41;8.90;99.90
44671;DHT22;48397;53.016;-2.260;2023-02-01T19:03:14;8.90;99.90
44671;DHT22;48397;53.016;-2.260;2023-02-01T19:05:41;8.90;99.90
44671;DHT22;48397;53.016;-2.260;2023-02-01T19:10:40;8.90;99.90
44671;DHT22;48397;53.016;-2.260;2023-02-01T19:13:12;8.80;99.90
44671;DHT22;48397;53.016;-2.260;2023-02-01T19:15:41;8.80;99.90
44671;DHT22;48397;53.016;-2.260;2023-02-01T19:20:38;8.80;99.90
44671;DHT22;48397;53.016;-2.260;2023-02-01T19:23:13;8.80;99.90
44671;DHT22;48397;53.016;-2.260;2023-02-01T19:25:45;8.80;99.90
44671;DHT22;48397;53.016;-2.260;2023-02-01T19:28:14;8.70;99.90
44671;DHT22;48397;53.016;-2.260;2023-02-01T19:30:42;8.40;99.90
44671;DHT22;48397;53.016;-2.260;2023-02-01T19:33:11;8.30;99.90
44671;DHT22;48397;53.016;-2.260;2023-02-01T19:35:39;8.20;99.90